Airfield :
LOGIN :

Register | Disclaimer

   EN    FR    IT 

 










Legend :    VFR   Marginal VFR   IFR   Intensive IFR   Very Intensive IFR
Visi :
Ceiling :
>= 8 km
>= 3000ft
5 to 8 km
1000 to 3000 ft
1500m to 5 km
500 to 1000 ft
800 to 1500m
200 to 500 ft
< 800m
< 200 ft
Symbols :   Thunderstorms  Fog  Heavy snow  Heavy precipitations  Wind > 20 kt
SIGMETs :     Misc.  Thunderstorms  Icing  Turbulence  Mountain Waves  Volcanic Ashes







- Airport Elevation : 1516 ft
- IATA code : AGB


EDMA - Augsburg

CURRENT METAR :
  • 191150Z 06005KT 010V110 9999 FEW047 14/02 Q1027

EXPIRED METARs :
  • 191120Z 02008KT 350V060 9999 SCT046 14/05 Q1027
  • 191050Z 04007KT 350V080 9999 FEW044 14/04 Q1027
  • 191020Z 05006KT 010V090 CAVOK 13/03 Q1027
  • 190950Z 03007KT 360V060 CAVOK 13/04 Q1027
  • 190920Z 04007KT 360V080 CAVOK 12/04 Q1028

TAF TAF EDMA
Valid from the 19 at 12:00 until the 19 at 21:00 UTC


191100Z 1912/1921 05008KT CAVOK
BECMG 1917/1918 04002KT
No reported NOTAMs for that airfield.



MET'MAP, your aeronautical weather chart ! - Copyright ORBIFLY December 2007 - Disclaimer

ORBIFLY MET'MAP TEAM :

Programming & Development : Alexandra Zaïnal
Concept & Development : Baudouin d'Aumeries
Co-Development & Prog : Marc-Olivier Méhu
Technical & hardware support : Manuel Goepfert

Contact : metmap@orbifly.com




SOURCES & CREDITS :

   NOAA